Jevne, Minnesota
Current Conditions -  °F | °C
As of 11:05 AM on Friday 24 Oct 2014 (Local Time) from KHZX Reporting Station
Clear Clear  
Wind Chill: 14°   Ceiling: Unl
Heat Index: 14°   Visibility: 10mi
Dew Point:   Wind: 10mph
Humidity: 72%   Direction: 190°S
Pressure: 29.84"   Gusts: NA
Location:  46.7232°N, 93.3159°W
Report Text: KHZX 241605Z AUTO 19009KT 10SM CLR 14/09 A2984 RMK AO2
Loading
Personal Weather Stations






























Interactive Weather Map
Tropical Storm Tracking
New forecast layout! Learn more

10-Day Weather Forecast

Advertisements
Track Severe Weather on mobile